sensor_id;sensor_type;location;lat;lon;timestamp;pressure;altitude;pressure_sealevel;temperature;humidity
12536;BME280;6334;48.696;2.114;2023-04-19T00:02:25;100310.80;;;11.76;66.26
12536;BME280;6334;48.696;2.114;2023-04-19T00:04:55;100307.84;;;11.71;66.76
12536;BME280;6334;48.696;2.114;2023-04-19T00:07:26;100311.13;;;11.69;68.05
12536;BME280;6334;48.696;2.114;2023-04-19T00:09:56;100302.55;;;11.46;66.84
12536;BME280;6334;48.696;2.114;2023-04-19T00:12:26;100306.74;;;11.53;67.58
12536;BME280;6334;48.696;2.114;2023-04-19T00:14:57;100303.66;;;11.74;67.78
12536;BME280;6334;48.696;2.114;2023-04-19T00:17:27;100301.70;;;11.68;68.01
12536;BME280;6334;48.696;2.114;2023-04-19T00:19:58;100305.66;;;11.59;68.05
12536;BME280;6334;48.696;2.114;2023-04-19T00:22:28;100301.20;;;11.68;66.63
12536;BME280;6334;48.696;2.114;2023-04-19T00:24:59;100298.82;;;11.53;67.74
12536;BME280;6334;48.696;2.114;2023-04-19T00:27:29;100306.91;;;11.52;68.89
12536;BME280;6334;48.696;2.114;2023-04-19T00:30:00;100306.20;;;11.41;68.18
12536;BME280;6334;48.696;2.114;2023-04-19T00:32:30;100306.51;;;11.50;67.91
12536;BME280;6334;48.696;2.114;2023-04-19T00:35:01;100305.66;;;11.65;67.43
12536;BME280;6334;48.696;2.114;2023-04-19T00:37:31;100303.70;;;11.77;66.71
12536;BME280;6334;48.696;2.114;2023-04-19T00:40:01;100302.93;;;11.79;66.62
12536;BME280;6334;48.696;2.114;2023-04-19T00:42:30;100298.14;;;11.75;67.04
12536;BME280;6334;48.696;2.114;2023-04-19T00:45:01;100292.58;;;11.44;67.66
12536;BME280;6334;48.696;2.114;2023-04-19T00:47:30;100295.06;;;11.37;68.31
12536;BME280;6334;48.696;2.114;2023-04-19T00:50:00;100294.16;;;11.59;66.99
12536;BME280;6334;48.696;2.114;2023-04-19T00:52:31;100288.72;;;11.68;67.21
12536;BME280;6334;48.696;2.114;2023-04-19T00:55:07;100290.38;;;11.70;67.15
12536;BME280;6334;48.696;2.114;2023-04-19T00:57:37;100290.20;;;11.47;67.78
12536;BME280;6334;48.696;2.114;2023-04-19T01:00:09;100288.18;;;11.57;67.47
12536;BME280;6334;48.696;2.114;2023-04-19T01:02:41;100288.92;;;11.43;67.60
12536;BME280;6334;48.696;2.114;2023-04-19T01:05:12;100287.50;;;11.30;67.87
12536;BME280;6334;48.696;2.114;2023-04-19T01:07:42;100285.28;;;11.33;67.64
12536;BME280;6334;48.696;2.114;2023-04-19T01:10:11;100279.73;;;11.38;68.02
12536;BME280;6334;48.696;2.114;2023-04-19T01:12:40;100280.76;;;11.21;68.41
12536;BME280;6334;48.696;2.114;2023-04-19T01:15:11;100283.00;;;11.36;68.42
12536;BME280;6334;48.696;2.114;2023-04-19T01:17:42;100276.86;;;11.42;67.15
12536;BME280;6334;48.696;2.114;2023-04-19T01:20:13;100278.80;;;10.93;69.59
12536;BME280;6334;48.696;2.114;2023-04-19T01:22:44;100273.39;;;11.08;69.21
12536;BME280;6334;48.696;2.114;2023-04-19T01:25:14;100273.52;;;11.28;68.36
12536;BME280;6334;48.696;2.114;2023-04-19T01:27:43;100270.81;;;11.31;68.44
12536;BME280;6334;48.696;2.114;2023-04-19T01:30:14;100270.69;;;11.20;68.26
12536;BME280;6334;48.696;2.114;2023-04-19T01:32:44;100272.70;;;11.41;67.23
12536;BME280;6334;48.696;2.114;2023-04-19T01:35:15;100270.74;;;11.24;68.23
12536;BME280;6334;48.696;2.114;2023-04-19T01:37:47;100270.61;;;11.27;68.17
12536;BME280;6334;48.696;2.114;2023-04-19T01:40:17;100272.73;;;11.25;67.83
12536;BME280;6334;48.696;2.114;2023-04-19T01:42:48;100269.80;;;11.10;68.36
12536;BME280;6334;48.696;2.114;2023-04-19T01:45:18;100271.63;;;11.04;68.21
12536;BME280;6334;48.696;2.114;2023-04-19T01:47:48;100270.05;;;11.26;67.91
12536;BME280;6334;48.696;2.114;2023-04-19T01:50:19;100269.53;;;10.85;68.97
12536;BME280;6334;48.696;2.114;2023-04-19T01:52:49;100270.53;;;11.03;68.42
12536;BME280;6334;48.696;2.114;2023-04-19T01:55:19;100267.27;;;11.06;68.48
12536;BME280;6334;48.696;2.114;2023-04-19T01:57:50;100265.68;;;10.61;69.51
12536;BME280;6334;48.696;2.114;2023-04-19T02:00:20;100268.84;;;10.89;68.84
12536;BME280;6334;48.696;2.114;2023-04-19T02:02:52;100265.83;;;11.07;68.37
12536;BME280;6334;48.696;2.114;2023-04-19T02:05:23;100262.02;;;11.06;68.62
12536;BME280;6334;48.696;2.114;2023-04-19T02:07:53;100259.30;;;10.59;70.27
12536;BME280;6334;48.696;2.114;2023-04-19T02:10:24;100261.30;;;10.86;68.55
12536;BME280;6334;48.696;2.114;2023-04-19T02:12:54;100260.05;;;10.75;68.94
12536;BME280;6334;48.696;2.114;2023-04-19T02:15:25;100264.71;;;10.94;68.65
12536;BME280;6334;48.696;2.114;2023-04-19T02:17:55;100264.58;;;11.00;67.74
12536;BME280;6334;48.696;2.114;2023-04-19T02:20:25;100262.06;;;10.93;67.93
12536;BME280;6334;48.696;2.114;2023-04-19T02:22:55;100262.38;;;11.03;68.35
12536;BME280;6334;48.696;2.114;2023-04-19T02:25:27;100265.19;;;10.88;68.16
12536;BME280;6334;48.696;2.114;2023-04-19T02:27:57;100260.64;;;10.77;68.87
12536;BME280;6334;48.696;2.114;2023-04-19T02:30:28;100266.84;;;10.72;68.61
12536;BME280;6334;48.696;2.114;2023-04-19T02:32:59;100265.02;;;10.88;68.12
12536;BME280;6334;48.696;2.114;2023-04-19T02:35:29;100264.63;;;10.76;68.71
12536;BME280;6334;48.696;2.114;2023-04-19T02:38:01;100262.77;;;10.91;68.18
12536;BME280;6334;48.696;2.114;2023-04-19T02:40:30;100258.50;;;10.83;68.28
12536;BME280;6334;48.696;2.114;2023-04-19T02:43:01;100265.48;;;10.74;68.54
12536;BME280;6334;48.696;2.114;2023-04-19T02:45:31;100261.12;;;10.51;69.34
12536;BME280;6334;48.696;2.114;2023-04-19T02:48:01;100264.30;;;10.65;68.71
12536;BME280;6334;48.696;2.114;2023-04-19T02:50:32;100263.13;;;10.75;68.79
12536;BME280;6334;48.696;2.114;2023-04-19T02:53:02;100261.14;;;10.75;68.38
12536;BME280;6334;48.696;2.114;2023-04-19T02:55:33;100264.19;;;10.70;68.67
12536;BME280;6334;48.696;2.114;2023-04-19T02:58:04;100258.63;;;10.59;69.03
12536;BME280;6334;48.696;2.114;2023-04-19T03:00:34;100262.92;;;10.71;68.53
12536;BME280;6334;48.696;2.114;2023-04-19T03:03:05;100263.83;;;10.55;68.97
12536;BME280;6334;48.696;2.114;2023-04-19T03:05:35;100250.95;;;10.53;68.82
12536;BME280;6334;48.696;2.114;2023-04-19T03:08:05;100258.87;;;10.58;69.06
12536;BME280;6334;48.696;2.114;2023-04-19T03:10:36;100257.48;;;10.34;69.29
12536;BME280;6334;48.696;2.114;2023-04-19T03:13:06;100258.92;;;10.73;68.26
12536;BME280;6334;48.696;2.114;2023-04-19T03:15:37;100258.83;;;10.53;69.16
12536;BME280;6334;48.696;2.114;2023-04-19T03:18:07;100254.51;;;10.32;69.32
12536;BME280;6334;48.696;2.114;2023-04-19T03:20:38;100254.40;;;10.66;68.39
12536;BME280;6334;48.696;2.114;2023-04-19T03:23:08;100256.97;;;10.45;68.80
12536;BME280;6334;48.696;2.114;2023-04-19T03:25:39;100257.17;;;10.34;69.33
12536;BME280;6334;48.696;2.114;2023-04-19T03:28:09;100258.01;;;10.74;68.26
12536;BME280;6334;48.696;2.114;2023-04-19T03:30:39;100253.91;;;10.17;69.94
12536;BME280;6334;48.696;2.114;2023-04-19T03:33:10;100257.95;;;10.49;68.68
12536;BME280;6334;48.696;2.114;2023-04-19T03:35:42;100252.45;;;10.13;70.11
12536;BME280;6334;48.696;2.114;2023-04-19T03:38:11;100251.67;;;10.05;70.10
12536;BME280;6334;48.696;2.114;2023-04-19T03:40:41;100252.03;;;10.25;69.67
12536;BME280;6334;48.696;2.114;2023-04-19T03:43:12;100250.11;;;10.15;70.60
12536;BME280;6334;48.696;2.114;2023-04-19T03:45:42;100250.33;;;10.36;69.47
12536;BME280;6334;48.696;2.114;2023-04-19T03:48:13;100249.89;;;10.48;68.88
12536;BME280;6334;48.696;2.114;2023-04-19T03:50:43;100247.51;;;10.43;68.98
12536;BME280;6334;48.696;2.114;2023-04-19T03:53:14;100246.66;;;10.37;69.21
12536;BME280;6334;48.696;2.114;2023-04-19T03:55:44;100246.57;;;10.10;69.58
12536;BME280;6334;48.696;2.114;2023-04-19T03:58:15;100242.17;;;10.48;69.31
12536;BME280;6334;48.696;2.114;2023-04-19T04:00:45;100238.49;;;10.12;69.89
12536;BME280;6334;48.696;2.114;2023-04-19T04:03:16;100245.77;;;9.91;70.84
12536;BME280;6334;48.696;2.114;2023-04-19T04:05:47;100239.94;;;10.06;70.26
12536;BME280;6334;48.696;2.114;2023-04-19T04:08:19;100236.07;;;10.11;69.70
12536;BME280;6334;48.696;2.114;2023-04-19T04:10:49;100237.74;;;10.25;69.24
12536;BME280;6334;48.696;2.114;2023-04-19T04:13:21;100242.78;;;10.31;69.80
12536;BME280;6334;48.696;2.114;2023-04-19T04:15:54;100243.95;;;10.41;69.30
12536;BME280;6334;48.696;2.114;2023-04-19T04:18:24;100240.30;;;10.27;69.67
12536;BME280;6334;48.696;2.114;2023-04-19T04:20:55;100247.34;;;10.36;69.35
12536;BME280;6334;48.696;2.114;2023-04-19T04:23:25;100247.02;;;10.29;69.71
12536;BME280;6334;48.696;2.114;2023-04-19T04:25:58;100248.62;;;9.98;70.68
12536;BME280;6334;48.696;2.114;2023-04-19T04:28:29;100247.16;;;10.23;69.81
12536;BME280;6334;48.696;2.114;2023-04-19T04:30:59;100249.77;;;10.29;68.92
12536;BME280;6334;48.696;2.114;2023-04-19T04:33:30;100253.53;;;10.31;69.33
12536;BME280;6334;48.696;2.114;2023-04-19T04:36:00;100251.36;;;10.26;69.55
12536;BME280;6334;48.696;2.114;2023-04-19T04:38:31;100253.63;;;10.25;69.40
12536;BME280;6334;48.696;2.114;2023-04-19T04:41:00;100249.16;;;9.94;70.87
12536;BME280;6334;48.696;2.114;2023-04-19T04:43:31;100258.70;;;10.24;69.71
12536;BME280;6334;48.696;2.114;2023-04-19T04:46:01;100264.45;;;9.63;71.69
12536;BME280;6334;48.696;2.114;2023-04-19T04:48:31;100258.49;;;9.76;71.44
12536;BME280;6334;48.696;2.114;2023-04-19T04:51:02;100254.50;;;9.76;71.32
12536;BME280;6334;48.696;2.114;2023-04-19T04:53:32;100261.45;;;10.08;70.31
12536;BME280;6334;48.696;2.114;2023-04-19T04:56:02;100259.75;;;10.15;70.08
12536;BME280;6334;48.696;2.114;2023-04-19T04:58:32;100258.61;;;10.11;70.15
12536;BME280;6334;48.696;2.114;2023-04-19T05:01:02;100262.88;;;9.97;71.00
12536;BME280;6334;48.696;2.114;2023-04-19T05:03:33;100265.41;;;10.04;70.38
12536;BME280;6334;48.696;2.114;2023-04-19T05:06:03;100265.58;;;10.14;70.04
12536;BME280;6334;48.696;2.114;2023-04-19T05:08:34;100265.97;;;9.89;71.23
12536;BME280;6334;48.696;2.114;2023-04-19T05:11:04;100269.80;;;9.88;70.84
12536;BME280;6334;48.696;2.114;2023-04-19T05:13:34;100267.41;;;10.14;70.67
12536;BME280;6334;48.696;2.114;2023-04-19T05:16:05;100269.44;;;9.59;71.80
12536;BME280;6334;48.696;2.114;2023-04-19T05:18:35;100265.33;;;9.88;70.86
12536;BME280;6334;48.696;2.114;2023-04-19T05:21:06;100271.30;;;9.88;70.91
12536;BME280;6334;48.696;2.114;2023-04-19T05:23:36;100271.69;;;9.74;71.40
12536;BME280;6334;48.696;2.114;2023-04-19T05:26:07;100274.16;;;9.99;70.92
12536;BME280;6334;48.696;2.114;2023-04-19T05:28:37;100270.16;;;10.14;69.51
12536;BME280;6334;48.696;2.114;2023-04-19T05:31:08;100278.92;;;9.93;70.35
12536;BME280;6334;48.696;2.114;2023-04-19T05:33:38;100282.55;;;10.01;70.54
12536;BME280;6334;48.696;2.114;2023-04-19T05:36:09;100279.70;;;10.02;71.00
12536;BME280;6334;48.696;2.114;2023-04-19T05:38:39;100274.95;;;10.19;70.19
12536;BME280;6334;48.696;2.114;2023-04-19T05:41:10;100280.91;;;10.10;70.18
12536;BME280;6334;48.696;2.114;2023-04-19T05:43:40;100287.09;;;9.52;72.28
12536;BME280;6334;48.696;2.114;2023-04-19T05:46:10;100285.39;;;10.21;70.25
12536;BME280;6334;48.696;2.114;2023-04-19T05:48:41;100285.48;;;10.09;70.26
12536;BME280;6334;48.696;2.114;2023-04-19T05:51:12;100288.55;;;9.62;72.12
12536;BME280;6334;48.696;2.114;2023-04-19T05:53:42;100290.69;;;10.26;69.91
12536;BME280;6334;48.696;2.114;2023-04-19T05:56:12;100289.68;;;9.86;71.51
12536;BME280;6334;48.696;2.114;2023-04-19T05:58:43;100283.05;;;10.25;69.69
12536;BME280;6334;48.696;2.114;2023-04-19T06:01:13;100288.80;;;9.97;71.01
12536;BME280;6334;48.696;2.114;2023-04-19T06:03:44;100294.59;;;10.01;71.32
12536;BME280;6334;48.696;2.114;2023-04-19T06:06:14;100295.91;;;10.17;70.62
12536;BME280;6334;48.696;2.114;2023-04-19T06:08:45;100296.94;;;10.31;71.04
12536;BME280;6334;48.696;2.114;2023-04-19T06:11:15;100296.23;;;10.45;69.72
12536;BME280;6334;48.696;2.114;2023-04-19T06:13:45;100300.67;;;10.53;69.69
12536;BME280;6334;48.696;2.114;2023-04-19T06:16:16;100297.20;;;10.40;69.84
12536;BME280;6334;48.696;2.114;2023-04-19T06:18:46;100294.41;;;10.30;70.88
12536;BME280;6334;48.696;2.114;2023-04-19T06:21:17;100297.11;;;10.41;70.27
12536;BME280;6334;48.696;2.114;2023-04-19T06:23:47;100298.48;;;10.34;70.91
12536;BME280;6334;48.696;2.114;2023-04-19T06:26:18;100301.75;;;10.26;71.15
12536;BME280;6334;48.696;2.114;2023-04-19T06:28:48;100302.42;;;10.55;69.70
12536;BME280;6334;48.696;2.114;2023-04-19T06:31:19;100305.03;;;10.58;69.79
12536;BME280;6334;48.696;2.114;2023-04-19T06:33:49;100307.52;;;10.72;70.09
12536;BME280;6334;48.696;2.114;2023-04-19T06:36:20;100310.27;;;10.72;69.61
12536;BME280;6334;48.696;2.114;2023-04-19T06:38:50;100301.70;;;10.63;70.04
12536;BME280;6334;48.696;2.114;2023-04-19T06:41:21;100304.06;;;10.75;69.83
12536;BME280;6334;48.696;2.114;2023-04-19T06:43:51;100300.95;;;10.49;70.64
12536;BME280;6334;48.696;2.114;2023-04-19T06:46:22;100298.06;;;10.67;69.81
12536;BME280;6334;48.696;2.114;2023-04-19T06:48:52;100308.47;;;10.88;68.76
12536;BME280;6334;48.696;2.114;2023-04-19T06:51:22;100309.88;;;10.98;68.84
12536;BME280;6334;48.696;2.114;2023-04-19T06:53:52;100307.34;;;11.09;68.84
12536;BME280;6334;48.696;2.114;2023-04-19T06:56:47;100306.48;;;10.87;69.13
12536;BME280;6334;48.696;2.114;2023-04-19T06:59:17;100308.66;;;10.87;69.39
12536;BME280;6334;48.696;2.114;2023-04-19T07:01:46;100309.36;;;11.26;68.07
12536;BME280;6334;48.696;2.114;2023-04-19T07:04:15;100308.91;;;10.84;68.81
12536;BME280;6334;48.696;2.114;2023-04-19T07:06:47;100314.06;;;11.52;67.34
12536;BME280;6334;48.696;2.114;2023-04-19T07:09:15;100318.05;;;10.98;68.11
12536;BME280;6334;48.696;2.114;2023-04-19T07:11:45;100313.50;;;11.18;68.49
12536;BME280;6334;48.696;2.114;2023-04-19T07:14:15;100325.81;;;11.11;68.32
12536;BME280;6334;48.696;2.114;2023-04-19T07:16:45;100325.92;;;11.09;68.99
12536;BME280;6334;48.696;2.114;2023-04-19T07:19:15;100320.82;;;11.13;68.02
12536;BME280;6334;48.696;2.114;2023-04-19T07:21:44;100328.27;;;11.33;67.72
12536;BME280;6334;48.696;2.114;2023-04-19T07:24:14;100325.05;;;11.45;67.16
12536;BME280;6334;48.696;2.114;2023-04-19T07:26:43;100332.19;;;11.56;67.41
12536;BME280;6334;48.696;2.114;2023-04-19T07:29:14;100326.42;;;11.44;67.45
12536;BME280;6334;48.696;2.114;2023-04-19T07:31:44;100333.71;;;11.61;66.83
12536;BME280;6334;48.696;2.114;2023-04-19T07:34:14;100327.81;;;11.96;66.24
12536;BME280;6334;48.696;2.114;2023-04-19T07:36:44;100335.37;;;11.84;66.57
12536;BME280;6334;48.696;2.114;2023-04-19T07:39:13;100327.47;;;11.67;66.82
12536;BME280;6334;48.696;2.114;2023-04-19T07:41:43;100325.45;;;11.70;66.50
12536;BME280;6334;48.696;2.114;2023-04-19T07:44:12;100326.66;;;11.80;66.24
12536;BME280;6334;48.696;2.114;2023-04-19T07:46:42;100326.59;;;12.12;65.95
12536;BME280;6334;48.696;2.114;2023-04-19T07:49:22;100325.09;;;12.20;66.56
12536;BME280;6334;48.696;2.114;2023-04-19T07:51:52;100324.48;;;12.39;65.57
12536;BME280;6334;48.696;2.114;2023-04-19T07:54:22;100323.11;;;12.23;65.12
12536;BME280;6334;48.696;2.114;2023-04-19T07:56:51;100319.37;;;12.63;64.88
12536;BME280;6334;48.696;2.114;2023-04-19T07:59:22;100327.46;;;12.29;65.16
12536;BME280;6334;48.696;2.114;2023-04-19T08:01:52;100324.54;;;12.63;64.53
12536;BME280;6334;48.696;2.114;2023-04-19T08:04:23;100328.54;;;12.52;65.41
12536;BME280;6334;48.696;2.114;2023-04-19T08:06:52;100324.23;;;12.27;64.60
12536;BME280;6334;48.696;2.114;2023-04-19T08:09:23;100323.84;;;12.69;65.08
12536;BME280;6334;48.696;2.114;2023-04-19T08:11:53;100318.26;;;12.63;64.06
12536;BME280;6334;48.696;2.114;2023-04-19T08:14:23;100322.71;;;12.67;63.64
12536;BME280;6334;48.696;2.114;2023-04-19T08:16:53;100328.69;;;13.10;63.50
12536;BME280;6334;48.696;2.114;2023-04-19T08:19:23;100321.77;;;12.64;63.57
12536;BME280;6334;48.696;2.114;2023-04-19T08:21:54;100324.60;;;12.94;64.59
12536;BME280;6334;48.696;2.114;2023-04-19T08:24:25;100325.63;;;12.93;63.59
12536;BME280;6334;48.696;2.114;2023-04-19T08:26:56;100327.36;;;12.90;63.96
12536;BME280;6334;48.696;2.114;2023-04-19T08:29:26;100325.87;;;13.22;63.33
12536;BME280;6334;48.696;2.114;2023-04-19T08:31:57;100326.56;;;12.88;63.18
12536;BME280;6334;48.696;2.114;2023-04-19T08:34:29;100322.84;;;12.75;63.45
12536;BME280;6334;48.696;2.114;2023-04-19T08:36:59;100327.15;;;13.21;64.12
12536;BME280;6334;48.696;2.114;2023-04-19T08:39:32;100327.59;;;13.00;63.33
12536;BME280;6334;48.696;2.114;2023-04-19T08:42:07;100329.75;;;13.35;62.49
12536;BME280;6334;48.696;2.114;2023-04-19T08:44:37;100333.43;;;13.45;62.31
12536;BME280;6334;48.696;2.114;2023-04-19T08:47:07;100332.11;;;13.23;61.97
12536;BME280;6334;48.696;2.114;2023-04-19T08:49:38;100329.57;;;13.62;62.26
12536;BME280;6334;48.696;2.114;2023-04-19T08:52:09;100330.05;;;13.65;62.18
12536;BME280;6334;48.696;2.114;2023-04-19T08:54:38;100330.03;;;13.68;62.15
12536;BME280;6334;48.696;2.114;2023-04-19T08:57:08;100330.69;;;13.77;61.07
12536;BME280;6334;48.696;2.114;2023-04-19T08:59:38;100330.05;;;14.04;61.85
12536;BME280;6334;48.696;2.114;2023-04-19T09:02:09;100330.40;;;14.08;60.80
12536;BME280;6334;48.696;2.114;2023-04-19T09:04:40;100335.23;;;13.84;60.05
12536;BME280;6334;48.696;2.114;2023-04-19T09:07:24;100337.33;;;13.80;60.55
12536;BME280;6334;48.696;2.114;2023-04-19T09:10:13;100325.75;;;14.17;60.60
12536;BME280;6334;48.696;2.114;2023-04-19T09:12:42;100324.53;;;14.34;60.42
12536;BME280;6334;48.696;2.114;2023-04-19T09:15:12;100325.32;;;14.54;60.74
12536;BME280;6334;48.696;2.114;2023-04-19T09:17:42;100323.84;;;14.54;60.12
12536;BME280;6334;48.696;2.114;2023-04-19T09:20:14;100323.16;;;14.24;60.28
12536;BME280;6334;48.696;2.114;2023-04-19T09:22:48;100320.73;;;14.24;60.20
12536;BME280;6334;48.696;2.114;2023-04-19T09:25:24;100314.97;;;14.17;59.26
12536;BME280;6334;48.696;2.114;2023-04-19T09:27:44;100318.02;;;14.77;59.47
12536;BME280;6334;48.696;2.114;2023-04-19T09:30:14;100317.95;;;14.80;60.15
12536;BME280;6334;48.696;2.114;2023-04-19T09:32:47;100316.83;;;14.49;58.93
12536;BME280;6334;48.696;2.114;2023-04-19T09:35:18;100312.77;;;14.59;59.21
12536;BME280;6334;48.696;2.114;2023-04-19T09:37:59;100311.92;;;14.80;59.35
12536;BME280;6334;48.696;2.114;2023-04-19T09:40:30;100308.91;;;14.93;58.76
12536;BME280;6334;48.696;2.114;2023-04-19T09:43:00;100309.59;;;14.93;57.77
12536;BME280;6334;48.696;2.114;2023-04-19T09:45:42;100306.78;;;14.85;58.98
12536;BME280;6334;48.696;2.114;2023-04-19T09:48:13;100311.50;;;15.00;58.69
12536;BME280;6334;48.696;2.114;2023-04-19T09:50:52;100301.70;;;14.97;58.46
12536;BME280;6334;48.696;2.114;2023-04-19T09:53:22;100301.21;;;15.13;58.19
12536;BME280;6334;48.696;2.114;2023-04-19T09:55:52;100294.16;;;15.31;58.73
12536;BME280;6334;48.696;2.114;2023-04-19T09:58:24;100300.17;;;15.20;59.75
12536;BME280;6334;48.696;2.114;2023-04-19T10:00:55;100295.73;;;15.10;59.15
12536;BME280;6334;48.696;2.114;2023-04-19T10:03:27;100292.96;;;15.11;58.06
12536;BME280;6334;48.696;2.114;2023-04-19T10:05:58;100286.64;;;15.48;58.85
12536;BME280;6334;48.696;2.114;2023-04-19T10:08:31;100292.61;;;15.49;59.00
12536;BME280;6334;48.696;2.114;2023-04-19T10:11:03;100282.58;;;15.31;58.24
12536;BME280;6334;48.696;2.114;2023-04-19T10:13:33;100282.61;;;15.25;58.64
12536;BME280;6334;48.696;2.114;2023-04-19T10:16:03;100284.65;;;15.18;58.19
12536;BME280;6334;48.696;2.114;2023-04-19T10:18:33;100280.86;;;15.37;58.89
12536;BME280;6334;48.696;2.114;2023-04-19T10:21:05;100280.07;;;15.50;58.15
12536;BME280;6334;48.696;2.114;2023-04-19T10:23:35;100279.91;;;15.32;57.56
12536;BME280;6334;48.696;2.114;2023-04-19T10:26:04;100272.38;;;15.38;57.25
12536;BME280;6334;48.696;2.114;2023-04-19T10:28:34;100271.97;;;15.49;57.08
12536;BME280;6334;48.696;2.114;2023-04-19T10:31:09;100269.21;;;15.49;56.06
12536;BME280;6334;48.696;2.114;2023-04-19T10:33:36;100269.92;;;15.56;56.00
12536;BME280;6334;48.696;2.114;2023-04-19T10:36:10;100262.09;;;15.45;55.20
12536;BME280;6334;48.696;2.114;2023-04-19T10:38:49;100265.94;;;15.51;58.34
12536;BME280;6334;48.696;2.114;2023-04-19T10:41:20;100268.58;;;15.73;56.51
12536;BME280;6334;48.696;2.114;2023-04-19T10:49:03;100260.59;;;15.74;54.33
12536;BME280;6334;48.696;2.114;2023-04-19T10:51:36;100255.75;;;15.97;56.15
12536;BME280;6334;48.696;2.114;2023-04-19T10:54:27;100248.23;;;16.07;54.86
12536;BME280;6334;48.696;2.114;2023-04-19T10:57:05;100248.62;;;15.99;56.07
12536;BME280;6334;48.696;2.114;2023-04-19T10:59:37;100258.48;;;16.11;55.37
12536;BME280;6334;48.696;2.114;2023-04-19T11:07:21;100243.97;;;16.11;56.42
12536;BME280;6334;48.696;2.114;2023-04-19T11:09:51;100245.81;;;16.03;55.14
12536;BME280;6334;48.696;2.114;2023-04-19T11:12:21;100239.69;;;16.08;55.81
12536;BME280;6334;48.696;2.114;2023-04-19T11:14:52;100235.84;;;16.21;54.76
12536;BME280;6334;48.696;2.114;2023-04-19T11:17:29;100232.50;;;16.36;56.17
12536;BME280;6334;48.696;2.114;2023-04-19T11:20:07;100235.44;;;16.39;55.72
12536;BME280;6334;48.696;2.114;2023-04-19T11:22:45;100229.77;;;16.38;55.08
12536;BME280;6334;48.696;2.114;2023-04-19T11:27:50;100226.99;;;16.25;55.46
12536;BME280;6334;48.696;2.114;2023-04-19T11:30:20;100227.66;;;16.61;56.55
12536;BME280;6334;48.696;2.114;2023-04-19T11:32:50;100215.57;;;16.40;55.26
12536;BME280;6334;48.696;2.114;2023-04-19T11:35:25;100219.97;;;16.42;55.32
12536;BME280;6334;48.696;2.114;2023-04-19T11:37:54;100218.20;;;16.30;55.16
12536;BME280;6334;48.696;2.114;2023-04-19T11:40:25;100209.32;;;16.69;54.90
12536;BME280;6334;48.696;2.114;2023-04-19T11:42:56;100197.80;;;16.37;52.38
12536;BME280;6334;48.696;2.114;2023-04-19T11:45:26;100218.44;;;16.48;54.54
12536;BME280;6334;48.696;2.114;2023-04-19T11:47:56;100196.60;;;16.55;53.43
12536;BME280;6334;48.696;2.114;2023-04-19T11:50:30;100202.00;;;16.57;54.47
12536;BME280;6334;48.696;2.114;2023-04-19T11:53:01;100198.56;;;16.44;52.65
12536;BME280;6334;48.696;2.114;2023-04-19T11:55:31;100199.94;;;16.69;52.90
12536;BME280;6334;48.696;2.114;2023-04-19T11:57:58;100195.56;;;16.53;50.85
12536;BME280;6334;48.696;2.114;2023-04-19T12:00:30;100200.83;;;16.97;53.50
12536;BME280;6334;48.696;2.114;2023-04-19T12:03:00;100193.19;;;17.08;52.68
12536;BME280;6334;48.696;2.114;2023-04-19T12:05:32;100197.28;;;16.95;52.58
12536;BME280;6334;48.696;2.114;2023-04-19T12:08:03;100190.33;;;16.90;52.34
12536;BME280;6334;48.696;2.114;2023-04-19T12:10:35;100190.80;;;17.13;52.30
12536;BME280;6334;48.696;2.114;2023-04-19T12:13:16;100189.39;;;16.87;50.42
12536;BME280;6334;48.696;2.114;2023-04-19T12:15:46;100187.21;;;17.17;52.06
12536;BME280;6334;48.696;2.114;2023-04-19T12:18:15;100174.84;;;16.86;51.38
12536;BME280;6334;48.696;2.114;2023-04-19T12:20:47;100177.30;;;16.96;51.58
12536;BME280;6334;48.696;2.114;2023-04-19T12:23:16;100181.85;;;17.01;51.62
12536;BME280;6334;48.696;2.114;2023-04-19T12:25:47;100179.45;;;17.09;50.15
12536;BME280;6334;48.696;2.114;2023-04-19T12:28:17;100178.86;;;17.07;49.54
12536;BME280;6334;48.696;2.114;2023-04-19T12:30:48;100180.11;;;17.05;49.89
12536;BME280;6334;48.696;2.114;2023-04-19T12:33:18;100170.78;;;17.21;49.23
12536;BME280;6334;48.696;2.114;2023-04-19T12:35:48;100174.82;;;16.98;48.96
12536;BME280;6334;48.696;2.114;2023-04-19T12:38:19;100169.92;;;16.87;48.66
12536;BME280;6334;48.696;2.114;2023-04-19T12:40:49;100167.86;;;17.15;50.25
12536;BME280;6334;48.696;2.114;2023-04-19T12:43:20;100158.27;;;17.00;50.60
12536;BME280;6334;48.696;2.114;2023-04-19T12:45:50;100165.08;;;17.16;50.10
12536;BME280;6334;48.696;2.114;2023-04-19T12:48:21;100170.70;;;17.11;50.80
12536;BME280;6334;48.696;2.114;2023-04-19T12:50:51;100167.24;;;17.12;48.70
12536;BME280;6334;48.696;2.114;2023-04-19T12:53:22;100161.62;;;17.54;49.41
12536;BME280;6334;48.696;2.114;2023-04-19T12:55:52;100158.72;;;17.53;49.64
12536;BME280;6334;48.696;2.114;2023-04-19T12:58:24;100152.88;;;17.45;50.16
12536;BME280;6334;48.696;2.114;2023-04-19T13:00:54;100159.34;;;17.14;49.13
12536;BME280;6334;48.696;2.114;2023-04-19T13:03:24;100150.38;;;17.15;49.66
12536;BME280;6334;48.696;2.114;2023-04-19T13:05:55;100160.27;;;17.33;49.54
12536;BME280;6334;48.696;2.114;2023-04-19T13:08:25;100148.80;;;17.46;48.84
12536;BME280;6334;48.696;2.114;2023-04-19T13:10:56;100142.03;;;17.36;49.51
12536;BME280;6334;48.696;2.114;2023-04-19T13:13:26;100145.27;;;17.46;48.18
12536;BME280;6334;48.696;2.114;2023-04-19T13:15:57;100154.59;;;17.24;48.21
12536;BME280;6334;48.696;2.114;2023-04-19T13:18:27;100140.20;;;17.38;48.39
12536;BME280;6334;48.696;2.114;2023-04-19T13:20:58;100135.47;;;17.12;49.96
12536;BME280;6334;48.696;2.114;2023-04-19T13:23:28;100144.38;;;17.14;48.85
12536;BME280;6334;48.696;2.114;2023-04-19T13:25:59;100139.12;;;17.26;50.12
12536;BME280;6334;48.696;2.114;2023-04-19T13:28:29;100135.95;;;17.33;47.51
12536;BME280;6334;48.696;2.114;2023-04-19T13:31:00;100130.06;;;17.32;48.24
12536;BME280;6334;48.696;2.114;2023-04-19T13:33:30;100132.93;;;17.56;48.24